ZKRXD NZNR-NZAA
Flight info
| Callsign | ZKRXD |
|---|---|
| Flight time | N/A |
| Altitude | 29000 |
| Route | BOVSA H372 MOOSE Y601 DODKU |
| Aircraft | C680/M-SDFGLM3ORVWY/SB1 |
Departure
| Time | 2026-05-06 07:13 |
|---|---|
| Airport | Hawke's Bay Airport (NZNR) |
Arrival
| Time | N/A |
|---|---|
| Airport | Auckland International Airport (NZAA) |
| Time | Latitude | Longitude | Altitude | Speed | Heading |
|---|---|---|---|---|---|
| 2026-05-06 07:08 | -39.46533 | 176.87236 | 11 ft | 0 kts | 205° |
| 2026-05-06 07:09 | -39.46534 | 176.87236 | 11 ft | 0 kts | 205° |
| 2026-05-06 07:10 | -39.46532 | 176.87196 | 11 ft | 0 kts | 298° |
| 2026-05-06 07:10 | -39.46540 | 176.87172 | 11 ft | 9 kts | 175° |
| 2026-05-06 07:11 | -39.46542 | 176.87131 | 11 ft | 13 kts | 1° |
| 2026-05-06 07:11 | -39.46440 | 176.87126 | 11 ft | 10 kts | 320° |
| 2026-05-06 07:11 | -39.46437 | 176.87031 | 11 ft | 12 kts | 269° |
| 2026-05-06 07:11 | -39.46442 | 176.86878 | 11 ft | 19 kts | 268° |
| 2026-05-06 07:12 | -39.46408 | 176.86783 | 11 ft | 13 kts | 7° |
| 2026-05-06 07:12 | -39.46309 | 176.86796 | 11 ft | 23 kts | 3° |
| 2026-05-06 07:12 | -39.46203 | 176.86802 | 11 ft | 12 kts | 263° |
| 2026-05-06 07:12 | -39.46277 | 176.86799 | 11 ft | 20 kts | 185° |
| 2026-05-06 07:13 | -39.46730 | 176.86748 | 11 ft | 109 kts | 185° |
| 2026-05-06 07:13 | -39.47685 | 176.86629 | 436 ft | 148 kts | 186° |
| 2026-05-06 07:13 | -39.48701 | 176.86759 | 1493 ft | 159 kts | 165° |
| 2026-05-06 07:13 | -39.49862 | 176.87354 | 2148 ft | 204 kts | 153° |
| 2026-05-06 07:14 | -39.51184 | 176.88315 | 3266 ft | 227 kts | 149° |
| 2026-05-06 07:14 | -39.52595 | 176.89411 | 4541 ft | 237 kts | 150° |
| 2026-05-06 07:14 | -39.54033 | 176.90512 | 5674 ft | 243 kts | 151° |
| 2026-05-06 07:14 | -39.55487 | 176.91634 | 6746 ft | 251 kts | 142° |
| 2026-05-06 07:15 | -39.56488 | 176.93468 | 7827 ft | 254 kts | 105° |
| 2026-05-06 07:15 | -39.56538 | 176.95713 | 8943 ft | 250 kts | 70° |
| 2026-05-06 07:15 | -39.55641 | 176.97573 | 10103 ft | 243 kts | 36° |
| 2026-05-06 07:15 | -39.54142 | 176.98423 | 11262 ft | 239 kts | 3° |
| 2026-05-06 07:16 | -39.52474 | 176.98203 | 12422 ft | 242 kts | 346° |
| 2026-05-06 07:16 | -39.50809 | 176.97765 | 13592 ft | 246 kts | 349° |
| 2026-05-06 07:16 | -39.49087 | 176.97627 | 14768 ft | 251 kts | 0° |
| 2026-05-06 07:16 | -39.47336 | 176.97906 | 15908 ft | 256 kts | 5° |
| 2026-05-06 07:17 | -39.45561 | 176.98212 | 17024 ft | 259 kts | 4° |
| 2026-05-06 07:17 | -39.43776 | 176.98485 | 18112 ft | 263 kts | 4° |
| 2026-05-06 07:17 | -39.41941 | 176.98737 | 19163 ft | 268 kts | 3° |
| 2026-05-06 07:17 | -39.40067 | 176.98973 | 20181 ft | 273 kts | 3° |
| 2026-05-06 07:18 | -39.38151 | 176.99199 | 21183 ft | 279 kts | 2° |
| 2026-05-06 07:18 | -39.36196 | 176.99422 | 22151 ft | 284 kts | 2° |
| 2026-05-06 07:18 | -39.34209 | 176.99644 | 23068 ft | 289 kts | 2° |
| 2026-05-06 07:18 | -39.32189 | 176.99867 | 23940 ft | 293 kts | 2° |
| 2026-05-06 07:19 | -39.30138 | 177.00059 | 24758 ft | 297 kts | 357° |
| 2026-05-06 07:19 | -39.28104 | 176.99611 | 25503 ft | 299 kts | 339° |
| 2026-05-06 07:19 | -39.26197 | 176.98508 | 26229 ft | 302 kts | 328° |
| 2026-05-06 07:19 | -39.24439 | 176.97056 | 26928 ft | 305 kts | 321° |
| 2026-05-06 07:20 | -39.22747 | 176.95372 | 27612 ft | 309 kts | 317° |
| 2026-05-06 07:20 | -39.21106 | 176.93560 | 28272 ft | 313 kts | 315° |
| 2026-05-06 07:20 | -39.19482 | 176.91667 | 28895 ft | 317 kts | 314° |
| 2026-05-06 07:20 | -39.17838 | 176.89698 | 29242 ft | 332 kts | 313° |
| 2026-05-06 07:21 | -39.16108 | 176.87602 | 29354 ft | 351 kts | 313° |
| 2026-05-06 07:21 | -39.14266 | 176.85388 | 29392 ft | 371 kts | 314° |
| 2026-05-06 07:21 | -39.12317 | 176.83072 | 29396 ft | 391 kts | 314° |
| 2026-05-06 07:21 | -39.10288 | 176.80680 | 29392 ft | 410 kts | 315° |
| 2026-05-06 07:22 | -39.08137 | 176.78158 | 29391 ft | 426 kts | 315° |
| 2026-05-06 07:22 | -39.03641 | 176.72928 | 29391 ft | 440 kts | 315° |
| 2026-05-06 07:23 | -38.98869 | 176.67935 | 29390 ft | 446 kts | 323° |
| 2026-05-06 07:23 | -38.94394 | 176.64569 | 29391 ft | 450 kts | 329° |
| 2026-05-06 07:24 | -38.88778 | 176.60981 | 29391 ft | 448 kts | 332° |
| 2026-05-06 07:24 | -38.83222 | 176.57686 | 29390 ft | 437 kts | 332° |
| 2026-05-06 07:25 | -38.77622 | 176.54388 | 29394 ft | 447 kts | 332° |
| 2026-05-06 07:25 | -38.71965 | 176.51035 | 29395 ft | 453 kts | 332° |
| 2026-05-06 07:26 | -38.66240 | 176.47632 | 29391 ft | 454 kts | 332° |
| 2026-05-06 07:26 | -38.60511 | 176.44228 | 29395 ft | 454 kts | 332° |
| 2026-05-06 07:27 | -38.54778 | 176.40821 | 29396 ft | 454 kts | 332° |
| 2026-05-06 07:27 | -38.49044 | 176.37409 | 29398 ft | 454 kts | 332° |
| 2026-05-06 07:28 | -38.43353 | 176.34022 | 29398 ft | 454 kts | 332° |
| 2026-05-06 07:28 | -38.34751 | 176.28901 | 29400 ft | 455 kts | 332° |